Time;durP1;ratioP1;P1;durP2;ratioP2;P2;SDS_P1;SDS_P2;PMS_P1;PMS_P2;Temp;Humidity;BMP_temperature;BMP_pressure;BME280_temperature;BME280_humidity;BME280_pressure;Samples;Min_cycle;Max_cycle;Signal;HPM_P1;HPM_P2
2022/10/15 00:01:09;;;;;;;8.07;4.97;;;;;;;17.78;96.42;100461.53;6199782;22;20024;-66
2022/10/15 00:03:39;;;;;;;9.57;5.63;;;;;;;17.78;96.67;100458.75;6251590;22;20022;-66
2022/10/15 00:06:09;;;;;;;7.90;6.38;;;;;;;17.81;96.67;100455.25;6250698;22;20012;-65
2022/10/15 00:08:37;;;;;;;7.97;5.57;;;;;;;17.83;96.57;100455.69;6278318;22;20042;-66
2022/10/15 00:11:07;;;;;;;7.18;5.22;;;;;;;17.84;96.62;100454.50;6250342;22;20351;-65
2022/10/15 00:13:35;;;;;;;7.60;5.30;;;;;;;17.82;97.17;100450.47;6278470;22;20023;-66
2022/10/15 00:16:03;;;;;;;7.72;5.82;;;;;;;17.79;97.10;100454.81;6277483;22;20031;-65
2022/10/15 00:18:30;;;;;;;7.65;5.97;;;;;;;17.75;97.64;100453.09;6278133;22;20023;-66
2022/10/15 00:20:57;;;;;;;12.60;6.25;;;;;;;17.74;97.77;100451.50;6277875;22;20459;-67
2022/10/15 00:23:25;;;;;;;8.52;5.40;;;;;;;17.76;98.45;100452.75;6278461;22;20018;-66
2022/10/15 00:26:19;;;;;;;7.43;5.18;;;;;;;17.80;97.95;100444.47;6275716;22;20019;-66
2022/10/15 00:28:48;;;;;;;8.75;4.90;;;;;;;17.77;98.22;100446.00;6250813;22;20455;-65
2022/10/15 00:31:22;;;;;;;7.22;5.50;;;;;;;17.57;98.32;100449.94;6250282;22;20023;-66
2022/10/15 00:33:50;;;;;;;7.37;5.00;;;;;;;17.63;99.30;100442.94;6278406;22;20030;-66
2022/10/15 00:36:31;;;;;;;7.10;4.60;;;;;;;17.54;99.04;100439.56;6277585;22;20242;-66
2022/10/15 00:39:00;;;;;;;8.10;4.65;;;;;;;17.61;99.55;100434.13;6250783;22;20015;-66
2022/10/15 00:41:30;;;;;;;7.10;4.10;;;;;;;17.65;99.53;100437.81;6277445;22;20020;-65
2022/10/15 00:44:21;;;;;;;6.72;3.90;;;;;;;17.70;98.80;100429.16;6278346;22;20019;-66
2022/10/15 00:47:02;;;;;;;6.05;4.05;;;;;;;17.65;98.97;100443.38;6277733;22;20419;-66
2022/10/15 00:49:34;;;;;;;6.40;4.00;;;;;;;17.53;99.56;100437.13;6276842;22;20318;-67
2022/10/15 00:52:08;;;;;;;7.72;3.90;;;;;;;17.58;99.57;100434.06;6250258;22;20027;-66
2022/10/15 00:54:49;;;;;;;4.88;3.65;;;;;;;17.68;99.36;100427.88;6251106;22;20019;-66
2022/10/15 00:57:16;;;;;;;5.65;3.65;;;;;;;17.64;99.38;100424.25;6224974;22;20022;-67
2022/10/15 00:59:48;;;;;;;7.55;3.38;;;;;;;17.69;99.38;100429.50;6277955;22;20576;-66
2022/10/15 01:02:19;;;;;;;6.63;3.58;;;;;;;17.68;99.36;100419.53;6250733;22;20019;-66
2022/10/15 01:04:48;;;;;;;6.35;3.25;;;;;;;17.71;99.03;100424.38;6276780;22;20057;-66
2022/10/15 01:07:15;;;;;;;5.93;3.15;;;;;;;17.65;98.90;100421.09;6249973;22;20019;-67
2022/10/15 01:09:48;;;;;;;4.88;3.15;;;;;;;17.69;99.09;100413.63;6277633;22;20064;-67
2022/10/15 01:12:38;;;;;;;6.22;2.95;;;;;;;17.63;98.78;100406.72;6251068;22;20016;-67
2022/10/15 01:15:08;;;;;;;5.00;2.75;;;;;;;17.68;99.52;100398.06;6251333;22;20471;-67
2022/10/15 01:17:49;;;;;;;3.83;2.28;;;;;;;17.68;99.52;100391.66;6224441;22;20026;-67
2022/10/15 01:20:19;;;;;;;4.70;2.13;;;;;;;17.65;99.13;100393.22;6250604;22;20019;-66
2022/10/15 01:23:19;;;;;;;3.80;1.98;;;;;;;17.70;99.27;100392.94;6277823;22;20027;-67
2022/10/15 01:26:16;;;;;;;5.93;2.50;;;;;;;17.67;99.46;100390.88;6277281;22;20023;-66
2022/10/15 01:28:57;;;;;;;5.57;2.60;;;;;;;17.59;99.69;100382.75;6250636;22;20026;-66
2022/10/15 01:31:49;;;;;;;3.78;2.22;;;;;;;17.59;99.50;100377.19;6224864;22;20026;-67
2022/10/15 01:34:47;;;;;;;5.25;2.53;;;;;;;17.58;99.87;100370.81;6278212;22;20019;-66
2022/10/15 01:37:49;;;;;;;4.55;2.55;;;;;;;17.59;100.00;100366.84;6225277;22;20023;-66
2022/10/15 01:40:20;;;;;;;4.07;2.40;;;;;;;17.62;100.00;100359.75;6276302;22;20019;-65
2022/10/15 01:42:59;;;;;;;4.88;2.80;;;;;;;17.52;100.00;100363.91;6226367;22;20019;-66
2022/10/15 01:45:39;;;;;;;4.57;2.50;;;;;;;17.33;100.00;100346.41;6251060;22;20034;-67
2022/10/15 01:48:32;;;;;;;5.25;2.50;;;;;;;17.06;100.00;100347.44;6204306;22;20020;-66
2022/10/15 01:51:01;;;;;;;6.20;3.05;;;;;;;16.92;100.00;100353.50;6249967;22;20026;-66
2022/10/15 01:53:29;;;;;;;4.80;2.55;;;;;;;16.64;100.00;100344.53;6235878;22;20020;-66
2022/10/15 01:55:59;;;;;;;3.97;2.80;;;;;;;17.00;100.00;100343.34;6249526;22;20455;-66
2022/10/15 01:58:26;;;;;;;;;;;;;;;17.16;100.00;100335.69;6250947;22;20343;-67
2022/10/15 02:00:56;;;;;;;3.97;2.63;;;;;;;17.15;100.00;100326.56;6225341;22;19915;-67
2022/10/15 02:03:23;;;;;;;7.22;3.13;;;;;;;17.06;100.00;100322.38;6226326;22;20020;-68
2022/10/15 02:06:06;;;;;;;7.03;3.50;;;;;;;16.80;100.00;100317.47;6226921;22;20016;-67
2022/10/15 02:08:40;;;;;;;4.03;3.17;;;;;;;16.92;100.00;100314.56;6227295;22;20027;-68
2022/10/15 02:11:11;;;;;;;4.90;3.50;;;;;;;16.96;100.00;100306.28;6251237;22;20020;-68
2022/10/15 02:13:55;;;;;;;6.13;3.28;;;;;;;17.11;100.00;100297.84;6227395;22;20039;-66
2022/10/15 02:16:23;;;;;;;5.60;3.65;;;;;;;16.87;100.00;100292.59;6251958;22;20484;-67
2022/10/15 02:18:55;;;;;;;4.47;3.00;;;;;;;16.99;100.00;100298.00;6279685;22;20026;-67
2022/10/15 02:21:37;;;;;;;5.20;3.55;;;;;;;17.03;100.00;100286.94;6252580;22;20023;-68
2022/10/15 02:24:17;;;;;;;6.32;3.33;;;;;;;16.86;100.00;100289.00;6252073;22;20420;-66
2022/10/15 02:26:45;;;;;;;4.90;3.00;;;;;;;16.77;100.00;100271.72;6279534;22;20008;-67
2022/10/15 02:29:19;;;;;;;7.50;3.38;;;;;;;17.00;100.00;100269.00;6252875;22;20016;-67
2022/10/15 02:31:48;;;;;;;4.45;3.30;;;;;;;16.98;100.00;100267.75;6227744;22;20019;-67
2022/10/15 02:34:20;;;;;;;4.97;3.13;;;;;;;16.89;100.00;100259.66;6202176;22;20387;-66
2022/10/15 02:36:48;;;;;;;5.80;3.33;;;;;;;16.77;100.00;100252.22;6226904;22;20011;-66
2022/10/15 02:39:20;;;;;;;5.40;3.42;;;;;;;16.98;100.00;100245.50;6252263;22;20016;-65
2022/10/15 02:41:48;;;;;;;4.90;3.20;;;;;;;16.79;100.00;100227.66;6250600;22;20031;-67
2022/10/15 02:44:16;;;;;;;8.85;3.60;;;;;;;16.85;100.00;100228.16;6251440;22;20316;-68
2022/10/15 02:46:43;;;;;;;5.35;3.10;;;;;;;16.96;100.00;100226.41;6250928;22;20060;-67
2022/10/15 02:49:12;;;;;;;8.85;3.90;;;;;;;17.10;100.00;100221.13;6200897;22;20020;-66
2022/10/15 02:51:40;;;;;;;5.18;3.47;;;;;;;17.25;100.00;100224.94;6251491;22;20026;-65
2022/10/15 02:54:07;;;;;;;5.13;3.03;;;;;;;17.31;100.00;100210.34;6279301;22;20016;-66
2022/10/15 02:56:38;;;;;;;6.03;2.80;;;;;;;17.40;100.00;100222.03;6278815;22;20019;-66
2022/10/15 02:59:05;;;;;;;;;;;;;;;17.39;100.00;100208.50;6227018;22;20026;-66
2022/10/15 03:01:33;;;;;;;3.97;2.53;;;;;;;17.41;100.00;100215.31;6236690;22;19915;-65
2022/10/15 03:04:01;;;;;;;4.55;2.53;;;;;;;17.47;100.00;100205.50;6251716;22;20023;-66
2022/10/15 03:06:30;;;;;;;3.17;2.05;;;;;;;17.56;100.00;100206.06;6251041;22;20508;-66
2022/10/15 03:08:58;;;;;;;4.55;1.80;;;;;;;17.56;100.00;100194.91;6251334;22;20026;-67
2022/10/15 03:11:25;;;;;;;4.80;1.83;;;;;;;17.42;100.00;100191.84;6250697;22;20023;-67
2022/10/15 03:13:52;;;;;;;2.33;1.20;;;;;;;17.49;100.00;100191.19;6251383;22;20451;-67
2022/10/15 03:16:20;;;;;;;4.25;1.40;;;;;;;17.57;100.00;100179.00;6250322;22;20046;-66
2022/10/15 03:18:48;;;;;;;3.75;1.40;;;;;;;17.51;100.00;100184.09;6252115;22;20020;-68
2022/10/15 03:21:17;;;;;;;4.15;1.05;;;;;;;17.50;100.00;100182.50;6251211;22;20316;-65
2022/10/15 03:23:44;;;;;;;1.92;1.00;;;;;;;17.66;100.00;100171.22;6251931;22;20020;-66
2022/10/15 03:26:18;;;;;;;5.78;1.30;;;;;;;17.48;100.00;100173.72;6247999;22;20026;-66
2022/10/15 03:28:46;;;;;;;3.03;0.90;;;;;;;17.62;100.00;100162.78;6261689;22;20022;-66
2022/10/15 03:31:21;;;;;;;3.20;1.00;;;;;;;17.46;100.00;100158.50;6250812;22;20038;-66
2022/10/15 03:33:50;;;;;;;3.30;0.90;;;;;;;17.41;100.00;100156.03;6278755;22;20030;-65
2022/10/15 03:36:21;;;;;;;3.72;1.20;;;;;;;17.47;100.00;100146.22;6250639;22;20019;-66
2022/10/15 03:38:49;;;;;;;4.13;1.13;;;;;;;17.49;100.00;100153.03;6251363;22;20012;-66
2022/10/15 03:41:16;;;;;;;3.00;1.05;;;;;;;17.52;100.00;100143.13;6251232;22;20023;-66
2022/10/15 03:43:44;;;;;;;2.33;0.80;;;;;;;17.63;100.00;100144.09;6251607;22;20015;-66
2022/10/15 03:46:12;;;;;;;2.88;0.80;;;;;;;17.64;100.00;100140.91;6224639;22;20023;-66
2022/10/15 03:48:42;;;;;;;;;;;;;;;17.61;100.00;100136.09;6226083;22;20016;-67
2022/10/15 03:51:11;;;;;;;2.47;0.88;;;;;;;17.63;100.00;100139.31;6225342;22;19922;-67
2022/10/15 03:53:46;;;;;;;2.60;0.75;;;;;;;17.56;100.00;100133.66;6227758;22;20020;-66
2022/10/15 03:56:13;;;;;;;2.58;1.00;;;;;;;17.60;100.00;100137.28;6250678;22;20312;-66
2022/10/15 03:58:41;;;;;;;4.30;0.90;;;;;;;17.59;100.00;100129.31;6251390;22;20019;-65
2022/10/15 04:01:16;;;;;;;2.75;0.90;;;;;;;17.64;100.00;100127.00;6225043;22;20339;-66
2022/10/15 04:03:44;;;;;;;3.13;1.00;;;;;;;17.63;100.00;100127.38;6277856;22;20027;-66
2022/10/15 04:06:14;;;;;;;1.92;0.65;;;;;;;17.76;100.00;100109.28;6250424;22;20110;-66
2022/10/15 04:08:42;;;;;;;3.38;1.02;;;;;;;17.67;100.00;100112.34;6278185;22;20023;-66
2022/10/15 04:11:19;;;;;;;2.17;0.70;;;;;;;17.68;100.00;100113.94;6227592;22;20023;-66
2022/10/15 04:13:55;;;;;;;2.28;0.90;;;;;;;17.65;100.00;100117.47;6251443;22;20016;-66
2022/10/15 04:16:23;;;;;;;2.85;0.70;;;;;;;17.66;100.00;100110.72;6251219;22;20011;-66
2022/10/15 04:18:50;;;;;;;2.97;0.98;;;;;;;17.78;100.00;100107.72;6251545;22;20018;-67
2022/10/15 04:21:17;;;;;;;4.07;1.27;;;;;;;17.90;100.00;100101.13;6250850;22;20027;-67
2022/10/15 04:23:49;;;;;;;2.88;0.80;;;;;;;17.89;100.00;100094.75;6250893;22;20020;-67
2022/10/15 04:26:23;;;;;;;5.15;0.90;;;;;;;17.85;100.00;100098.66;6250072;22;20020;-66
2022/10/15 04:28:50;;;;;;;2.58;0.77;;;;;;;17.95;100.00;100106.38;6250988;22;20016;-67
2022/10/15 04:31:19;;;;;;;3.77;0.97;;;;;;;17.93;100.00;100094.78;6225309;22;20030;-65
2022/10/15 04:33:48;;;;;;;4.13;1.23;;;;;;;17.90;100.00;100104.69;6261253;22;20238;-67
2022/10/15 04:36:16;;;;;;;4.43;1.13;;;;;;;17.94;100.00;100105.56;6249816;22;20027;-66
2022/10/15 04:38:52;;;;;;;4.20;0.95;;;;;;;17.96;100.00;100100.41;6237388;22;20019;-66
2022/10/15 04:41:34;;;;;;;5.85;1.10;;;;;;;17.91;100.00;100097.16;6249813;22;20459;-66
2022/10/15 04:44:04;;;;;;;7.38;1.48;;;;;;;17.88;100.00;100093.16;6250581;22;20011;-66
2022/10/15 04:46:32;;;;;;;3.95;1.08;;;;;;;17.91;100.00;100100.75;6225347;22;20016;-66
2022/10/15 04:49:08;;;;;;;4.35;1.10;;;;;;;17.92;100.00;100099.53;6225021;22;20022;-66
2022/10/15 04:51:36;;;;;;;4.68;1.00;;;;;;;17.99;100.00;100093.28;6249620;22;20026;-66
2022/10/15 04:54:11;;;;;;;3.63;0.95;;;;;;;17.97;100.00;100096.44;6287820;22;20019;-66
2022/10/15 04:56:53;;;;;;;2.83;0.95;;;;;;;17.98;100.00;100100.03;6227798;22;20026;-67
2022/10/15 04:59:21;;;;;;;3.53;1.00;;;;;;;17.94;100.00;100099.97;6250565;22;20022;-67
2022/10/15 05:02:18;;;;;;;4.43;1.20;;;;;;;17.94;100.00;100108.34;6169117;22;20021;-67
2022/10/15 05:04:50;;;;;;;5.20;1.40;;;;;;;17.93;100.00;100114.28;6226799;22;20023;-67
2022/10/15 05:07:17;;;;;;;2.92;0.85;;;;;;;18.04;100.00;100120.81;6224725;22;20030;-66
2022/10/15 05:09:46;;;;;;;3.92;0.88;;;;;;;18.06;100.00;100117.66;6250739;22;20019;-67
2022/10/15 05:12:13;;;;;;;3.35;0.90;;;;;;;18.05;100.00;100114.06;6250057;22;20078;-66
2022/10/15 05:14:41;;;;;;;6.97;0.88;;;;;;;17.99;100.00;100112.78;6250870;22;20019;-65
2022/10/15 05:17:15;;;;;;;3.08;1.00;;;;;;;18.01;100.00;100118.78;6249865;22;20031;-65
2022/10/15 05:19:43;;;;;;;3.42;0.70;;;;;;;18.04;100.00;100120.81;6225506;22;20018;-66
2022/10/15 05:22:17;;;;;;;4.57;1.05;;;;;;;17.96;100.00;100121.88;6277831;22;20103;-66
2022/10/15 05:24:52;;;;;;;3.50;1.10;;;;;;;18.06;100.00;100124.03;6260586;22;20328;-67
2022/10/15 05:27:34;;;;;;;3.92;1.20;;;;;;;18.17;100.00;100121.38;6228079;22;20024;-67
2022/10/15 05:30:04;;;;;;;3.50;1.15;;;;;;;18.19;100.00;100122.59;6250788;22;20022;-67
2022/10/15 05:32:40;;;;;;;3.95;1.17;;;;;;;18.09;100.00;100116.91;6250399;22;20030;-66
2022/10/15 05:35:11;;;;;;;3.80;1.05;;;;;;;18.15;100.00;100118.19;6250805;22;20026;-67
2022/10/15 05:37:51;;;;;;;4.03;1.10;;;;;;;18.30;100.00;100125.53;6228402;22;20383;-66
2022/10/15 05:40:18;;;;;;;4.43;1.45;;;;;;;18.31;100.00;100127.13;6250494;22;20020;-67
2022/10/15 05:43:01;;;;;;;5.22;1.30;;;;;;;18.22;100.00;100119.06;6250689;22;20024;-67
2022/10/15 05:45:28;;;;;;;7.65;2.28;;;;;;;18.29;100.00;100116.34;6277442;22;20031;-67
2022/10/15 05:48:01;;;;;;;6.93;1.95;;;;;;;18.33;99.99;100113.63;6251657;22;20027;-66
2022/10/15 05:50:28;;;;;;;5.15;2.00;;;;;;;18.31;100.00;100110.41;6225365;22;20043;-66
2022/10/15 05:52:57;;;;;;;5.70;1.52;;;;;;;18.20;100.00;100121.41;6249914;22;20019;-66
2022/10/15 05:55:33;;;;;;;5.70;1.30;;;;;;;18.20;100.00;100110.25;6249739;22;20027;-66
2022/10/15 05:58:02;;;;;;;7.32;1.45;;;;;;;18.27;100.00;100117.94;6226043;22;20473;-66
2022/10/15 06:00:30;;;;;;;5.78;1.20;;;;;;;18.23;100.00;100112.31;6250390;22;20455;-66
2022/10/15 06:02:57;;;;;;;4.18;1.17;;;;;;;18.19;100.00;100105.06;6277939;22;20023;-66
2022/10/15 06:05:25;;;;;;;3.83;0.93;;;;;;;18.27;100.00;100117.94;6277020;22;20051;-67
2022/10/15 06:07:52;;;;;;;3.88;1.45;;;;;;;18.33;100.00;100113.63;6250018;22;20028;-66
2022/10/15 06:10:19;;;;;;;5.10;1.33;;;;;;;18.16;100.00;100111.41;6276861;22;20738;-68
2022/10/15 06:12:50;;;;;;;5.13;1.50;;;;;;;18.33;100.00;100114.44;6278010;22;20435;-66
2022/10/15 06:15:18;;;;;;;4.95;1.20;;;;;;;18.18;100.00;100114.63;6277351;22;20019;-68
2022/10/15 06:17:45;;;;;;;4.22;1.10;;;;;;;18.21;100.00;100119.44;6277756;22;20027;-65
2022/10/15 06:20:12;;;;;;;4.75;1.20;;;;;;;18.20;100.00;100117.84;6250755;22;20018;-66
2022/10/15 06:22:39;;;;;;;3.42;0.88;;;;;;;18.19;100.00;100119.00;6277543;22;20122;-66
2022/10/15 06:25:07;;;;;;;9.18;5.68;;;;;;;18.19;100.00;100114.25;6277513;22;20020;-66
2022/10/15 06:27:35;;;;;;;7.45;4.05;;;;;;;18.26;100.00;100113.53;6200154;22;20023;-67
2022/10/15 06:30:03;;;;;;;5.05;1.90;;;;;;;18.24;100.00;100118.66;6277688;22;20016;-66
2022/10/15 06:32:30;;;;;;;4.53;1.20;;;;;;;18.21;100.00;100113.88;6250021;22;20016;-67
2022/10/15 06:34:57;;;;;;;3.75;1.20;;;;;;;18.18;100.00;100123.81;6224362;22;20019;-67
2022/10/15 06:37:25;;;;;;;13.57;8.75;;;;;;;18.21;100.00;100125.81;6224949;22;20539;-66
2022/10/15 06:39:55;;;;;;;7.30;3.20;;;;;;;18.24;100.00;100122.28;6277679;22;20016;-66
2022/10/15 06:42:22;;;;;;;5.70;3.03;;;;;;;18.22;100.00;100126.63;6277301;22;20020;-68
2022/10/15 06:44:54;;;;;;;4.38;1.35;;;;;;;18.21;100.00;100125.81;6277710;22;20020;-66
2022/10/15 06:47:21;;;;;;;3.85;1.00;;;;;;;18.27;100.00;100123.50;6275976;22;20024;-66
2022/10/15 06:49:49;;;;;;;3.08;1.10;;;;;;;18.19;100.00;100132.94;6277410;22;20020;-66
2022/10/15 06:52:16;;;;;;;7.22;1.08;;;;;;;18.17;100.00;100132.50;6251984;22;20031;-67
2022/10/15 06:54:44;;;;;;;5.82;1.70;;;;;;;18.17;100.00;100133.34;6279668;22;20470;-67
2022/10/15 06:57:13;;;;;;;13.30;9.52;;;;;;;18.16;100.00;100136.50;6277734;22;20440;-65
2022/10/15 07:00:14;;;;;;;5.03;2.05;;;;;;;18.57;100.00;100138.22;6279152;22;20015;-67
2022/10/15 07:02:54;;;;;;;5.53;1.70;;;;;;;18.38;100.00;100141.97;6246931;22;20022;-67
2022/10/15 07:05:21;;;;;;;6.03;1.83;;;;;;;18.36;100.00;100135.19;6278937;22;20412;-67
2022/10/15 07:07:56;;;;;;;4.72;0.95;;;;;;;18.10;100.00;100136.03;6279321;22;20480;-66
2022/10/15 07:10:24;;;;;;;4.28;1.15;;;;;;;18.17;100.00;100138.91;6225858;22;20016;-67
2022/10/15 07:12:53;;;;;;;5.18;1.17;;;;;;;18.25;100.00;100148.19;6278808;22;20012;-67
2022/10/15 07:15:21;;;;;;;7.43;1.60;;;;;;;18.24;100.00;100139.00;6278541;22;20085;-66
2022/10/15 07:17:50;;;;;;;5.90;1.90;;;;;;;18.19;100.00;100146.88;6278869;22;20019;-66
2022/10/15 07:20:18;;;;;;;8.18;4.30;;;;;;;18.37;100.00;100150.72;6251426;22;20030;-67
2022/10/15 07:22:49;;;;;;;6.63;3.13;;;;;;;18.40;100.00;100155.53;6278551;22;20043;-67
2022/10/15 07:25:17;;;;;;;3.63;1.20;;;;;;;18.40;100.00;100161.94;6225173;22;20467;-67
2022/10/15 07:27:46;;;;;;;3.67;0.90;;;;;;;18.40;100.00;100150.78;6278253;22;20024;-68
2022/10/15 07:30:13;;;;;;;5.68;1.20;;;;;;;18.40;100.00;100153.59;6251648;22;20022;-67
2022/10/15 07:32:40;;;;;;;2.55;1.02;;;;;;;18.48;100.00;100157.28;6226907;22;20676;-67
2022/10/15 07:35:13;;;;;;;3.30;1.10;;;;;;;18.52;100.00;100161.69;6278139;22;20019;-67
2022/10/15 07:37:40;;;;;;;2.97;1.30;;;;;;;18.47;100.00;100175.19;6278831;22;20023;-67
2022/10/15 07:40:08;;;;;;;2.25;0.73;;;;;;;18.50;100.00;100174.41;6200611;22;20012;-68
2022/10/15 07:42:36;;;;;;;3.35;0.80;;;;;;;18.53;100.00;100177.25;6201009;22;20027;-68
2022/10/15 07:45:04;;;;;;;4.75;1.08;;;;;;;18.49;100.00;100182.00;6251654;22;20023;-67
2022/10/15 07:47:31;;;;;;;4.90;1.33;;;;;;;18.54;100.00;100187.22;6279226;22;20016;-67
2022/10/15 07:49:58;;;;;;;5.28;1.30;;;;;;;18.64;100.00;100188.53;6252054;22;20428;-67
2022/10/15 07:52:25;;;;;;;8.93;1.77;;;;;;;18.64;100.00;100194.94;6277608;22;20020;-67
2022/10/15 07:54:53;;;;;;;2.42;1.08;;;;;;;18.47;100.00;100192.72;6278573;22;20020;-67
2022/10/15 07:57:20;;;;;;;2.97;0.80;;;;;;;18.54;100.00;100200.38;6278144;22;20016;-67
2022/10/15 07:59:49;;;;;;;10.70;5.75;;;;;;;18.58;100.00;100201.22;6251739;22;20034;-68
2022/10/15 08:02:17;;;;;;;8.40;4.95;;;;;;;18.51;100.00;100203.91;6278280;22;20030;-69
2022/10/15 08:04:44;;;;;;;4.18;0.82;;;;;;;18.68;100.00;100209.72;6278351;22;20026;-67
2022/10/15 08:07:11;;;;;;;2.78;0.57;;;;;;;18.42;100.00;100217.34;6278462;22;20047;-68
2022/10/15 08:09:38;;;;;;;3.20;1.25;;;;;;;18.36;100.00;100208.47;6224991;22;20015;-69
2022/10/15 08:12:06;;;;;;;1.65;0.60;;;;;;;18.47;100.00;100209.44;6201654;22;20012;-67
2022/10/15 08:14:34;;;;;;;3.22;0.93;;;;;;;18.48;100.00;100210.25;6279000;22;20439;-69
2022/10/15 08:17:03;;;;;;;1.60;0.75;;;;;;;18.36;100.00;100207.69;6224100;22;20042;-68
2022/10/15 08:19:30;;;;;;;0.95;0.50;;;;;;;18.18;100.00;100204.66;6275141;22;20012;-65
2022/10/15 08:21:58;;;;;;;1.80;0.68;;;;;;;18.33;100.00;100203.66;6249371;22;20020;-69
2022/10/15 08:24:25;;;;;;;1.60;0.60;;;;;;;18.31;100.00;100216.34;6251398;22;20015;-68
2022/10/15 08:26:53;;;;;;;4.88;1.00;;;;;;;18.43;100.00;100200.22;6198044;22;20023;-70
2022/10/15 08:29:20;;;;;;;5.18;0.90;;;;;;;18.57;100.00;100210.75;6251201;22;20335;-66
2022/10/15 08:31:48;;;;;;;2.70;0.88;;;;;;;18.74;100.00;100208.19;6276531;22;20022;-70
2022/10/15 08:34:17;;;;;;;4.38;0.80;;;;;;;18.66;100.00;100202.91;6250779;22;20038;-69
2022/10/15 08:36:45;;;;;;;4.47;0.98;;;;;;;18.81;100.00;100213.84;6251154;22;20074;-68
2022/10/15 08:39:12;;;;;;;4.60;0.80;;;;;;;18.80;100.00;100220.63;6225508;22;20352;-67
2022/10/15 08:41:44;;;;;;;8.15;0.80;;;;;;;18.88;100.00;100221.53;6277743;22;20027;-66
2022/10/15 08:44:26;;;;;;;1.90;0.75;;;;;;;19.19;97.63;100225.84;6249513;22;20029;-67
2022/10/15 08:47:07;;;;;;;3.20;0.90;;;;;;;19.31;96.50;100229.22;6251471;22;20030;-66
2022/10/15 08:49:44;;;;;;;4.30;0.90;;;;;;;19.09;95.59;100238.50;6249564;22;20019;-66
2022/10/15 08:52:20;;;;;;;6.18;2.88;;;;;;;19.16;96.59;100243.38;6251095;22;20486;-65
2022/10/15 08:54:47;;;;;;;2.83;1.30;;;;;;;19.03;96.29;100229.69;6225640;22;20463;-65
2022/10/15 08:58:00;;;;;;;3.47;1.13;;;;;;;19.04;96.51;100236.06;6278593;22;20016;-63
2022/10/15 09:00:30;;;;;;;14.50;3.47;;;;;;;19.15;95.21;100234.19;6231267;22;20023;-64
2022/10/15 09:03:09;;;;;;;3.75;1.30;;;;;;;18.88;95.76;100239.06;6199312;22;20020;-64
2022/10/15 09:05:45;;;;;;;7.60;1.30;;;;;;;19.06;96.21;100233.69;6272078;22;20031;-63
2022/10/15 09:08:25;;;;;;;3.42;1.20;;;;;;;19.07;95.60;100240.91;6220350;22;20023;-64
2022/10/15 09:10:59;;;;;;;3.67;1.37;;;;;;;19.09;95.51;100249.66;6249870;22;20022;-66
2022/10/15 09:13:30;;;;;;;3.42;1.10;;;;;;;19.07;95.33;100257.66;6276523;22;20020;-66
2022/10/15 09:16:01;;;;;;;2.92;0.90;;;;;;;19.15;94.25;100255.72;6248237;22;20020;-65
2022/10/15 09:18:31;;;;;;;6.35;0.80;;;;;;;19.17;94.53;100251.38;6277366;22;20023;-64
2022/10/15 09:20:59;;;;;;;3.28;1.10;;;;;;;19.24;94.11;100253.44;6249859;22;20031;-64
2022/10/15 09:23:29;;;;;;;3.63;0.98;;;;;;;19.24;93.37;100254.25;6250837;22;20023;-63
2022/10/15 09:26:02;;;;;;;2.65;0.70;;;;;;;19.08;93.17;100264.81;6275121;22;20596;-65
2022/10/15 09:28:37;;;;;;;1.88;0.60;;;;;;;19.03;93.69;100267.97;6278155;22;20022;-65
2022/10/15 09:31:07;;;;;;;3.60;0.80;;;;;;;19.00;93.88;100266.72;6275614;22;20431;-64
2022/10/15 09:33:45;;;;;;;;;;;;;;;19.28;93.66;100271.03;6224633;22;20347;-65
2022/10/15 09:36:28;;;;;;;3.30;0.93;;;;;;;19.34;92.62;100273.13;6249206;22;19926;-64
2022/10/15 09:39:02;;;;;;;3.25;1.48;;;;;;;19.46;91.85;100274.84;6275578;22;20466;-64
2022/10/15 09:42:05;;;;;;;5.13;1.10;;;;;;;19.60;91.39;100269.38;6283540;22;20026;-64
2022/10/15 09:44:37;;;;;;;3.97;1.40;;;;;;;19.34;92.72;100284.28;6227738;22;20061;-64
2022/10/15 09:47:28;;;;;;;2.35;0.80;;;;;;;19.16;92.86;100285.25;6275423;22;20019;-64
2022/10/15 09:50:03;;;;;;;5.07;0.95;;;;;;;19.69;91.56;100284.66;6275944;22;20106;-63
2022/10/15 09:52:50;;;;;;;4.47;1.42;;;;;;;19.75;92.11;100283.09;6246221;22;20340;-64
2022/10/15 09:55:32;;;;;;;4.93;1.23;;;;;;;19.60;92.70;100286.97;6248009;22;20023;-64
2022/10/15 09:58:08;;;;;;;7.38;1.08;;;;;;;19.74;92.17;100291.88;6274156;22;20020;-65
2022/10/15 10:00:55;;;;;;;5.32;1.00;;;;;;;19.58;90.28;100308.09;6272532;22;20023;-65
2022/10/15 10:03:25;;;;;;;5.78;1.13;;;;;;;19.47;90.51;100316.38;6246838;22;20020;-64
2022/10/15 10:06:02;;;;;;;;;;;;;;;19.50;89.88;100321.19;6246924;22;20016;-65
2022/10/15 10:08:53;;;;;;;4.43;1.13;;;;;;;19.45;93.53;100337.50;6272381;22;19920;-52
2022/10/15 10:11:22;;;;;;;2.17;0.90;;;;;;;19.92;94.17;100329.19;6275554;22;20012;-48
2022/10/15 10:13:57;;;;;;;4.57;1.23;;;;;;;20.36;91.09;100323.59;6275267;22;20015;-54
2022/10/15 10:16:26;;;;;;;5.15;1.15;;;;;;;20.72;88.80;100319.84;6273932;22;20022;-52
2022/10/15 10:19:11;;;;;;;3.75;0.90;;;;;;;20.61;83.59;100325.38;6277807;22;20035;-55
2022/10/15 10:21:41;;;;;;;2.67;1.25;;;;;;;20.80;85.77;100327.09;6277212;22;20019;-46
2022/10/15 10:24:30;;;;;;;5.75;1.10;;;;;;;20.94;83.58;100330.75;6275771;22;20020;-49
2022/10/15 10:26:58;;;;;;;3.05;1.10;;;;;;;21.08;82.47;100330.06;6279197;22;20480;-48
2022/10/15 10:29:26;;;;;;;2.78;0.90;;;;;;;21.21;81.15;100329.34;6251231;22;20019;-48
2022/10/15 10:32:20;;;;;;;3.00;0.82;;;;;;;20.71;76.94;100335.03;6279013;22;20690;-64
2022/10/15 10:34:48;;;;;;;3.15;0.88;;;;;;;20.31;77.95;100332.34;6278734;22;20019;-65
2022/10/15 10:37:19;;;;;;;2.30;0.80;;;;;;;19.77;79.07;100342.22;6277184;22;20030;-65
2022/10/15 10:39:58;;;;;;;1.83;0.80;;;;;;;19.76;81.71;100339.81;6251253;22;20019;-66
2022/10/15 10:42:33;;;;;;;5.28;1.70;;;;;;;19.77;79.75;100347.81;6251735;22;20012;-65
2022/10/15 10:45:22;;;;;;;2.85;1.05;;;;;;;19.43;81.15;100346.25;6288686;22;20016;-67
2022/10/15 10:47:50;;;;;;;5.63;1.15;;;;;;;19.26;83.10;100341.25;6250664;22;20030;-66
2022/10/15 10:50:34;;;;;;;3.33;1.00;;;;;;;19.76;84.26;100339.81;6252180;22;20019;-65
2022/10/15 10:53:31;;;;;;;4.32;2.20;;;;;;;19.37;81.88;100342.19;6279442;22;20022;-64
2022/10/15 10:56:00;;;;;;;3.95;1.30;;;;;;;19.54;82.27;100338.00;6226635;22;20027;-65
2022/10/15 10:58:30;;;;;;;5.70;1.15;;;;;;;19.72;81.23;100344.56;6278639;22;20020;-66
2022/10/15 11:00:58;;;;;;;6.28;1.10;;;;;;;19.87;80.93;100360.31;6226213;22;20367;-65
2022/10/15 11:03:36;;;;;;;6.03;1.15;;;;;;;19.74;81.43;100370.94;6252492;22;20015;-64
2022/10/15 11:06:34;;;;;;;2.90;0.80;;;;;;;19.68;81.49;100366.88;6276972;22;20030;-66
2022/10/15 11:09:11;;;;;;;3.38;1.17;;;;;;;19.55;82.58;100371.13;6275539;22;20107;-64
2022/10/15 11:11:51;;;;;;;5.82;1.08;;;;;;;19.31;83.63;100368.84;6251431;22;20095;-64
2022/10/15 11:14:44;;;;;;;3.00;0.80;;;;;;;19.05;85.61;100377.25;6276592;22;20016;-65
2022/10/15 11:17:33;;;;;;;1.45;0.60;;;;;;;18.79;87.68;100368.91;6250849;22;20012;-65
2022/10/15 11:20:39;;;;;;;2.85;0.90;;;;;;;18.88;90.57;100383.41;6249926;22;20016;-65
2022/10/15 11:23:37;;;;;;;1.42;0.50;;;;;;;18.72;87.39;100386.38;6228127;22;20016;-65
2022/10/15 11:26:28;;;;;;;3.20;0.90;;;;;;;18.47;86.32;100398.31;6250036;22;20535;-64
2022/10/15 11:29:22;;;;;;;3.47;0.80;;;;;;;18.03;86.15;100383.19;6253710;22;20142;-65
2022/10/15 11:31:51;;;;;;;2.78;0.90;;;;;;;18.35;86.15;100378.94;6277536;22;20012;-65
2022/10/15 11:34:29;;;;;;;2.67;1.00;;;;;;;18.45;83.11;100383.91;6254074;22;20015;-65
2022/10/15 11:37:22;;;;;;;2.30;0.60;;;;;;;18.45;82.45;100386.72;6250472;22;20351;-65
2022/10/15 11:40:12;;;;;;;2.25;0.75;;;;;;;19.11;83.20;100369.38;6251249;22;20452;-65
2022/10/15 11:42:39;;;;;;;;;;;;;;;18.71;78.46;100379.16;6278666;22;20030;-64
2022/10/15 11:45:37;;;;;;;0.80;0.50;;;;;;;18.69;76.73;100375.94;6245519;23;19915;-66
2022/10/15 11:48:23;;;;;;;1.58;0.52;;;;;;;18.84;78.22;100371.38;6246083;23;20016;-65
2022/10/15 11:51:06;;;;;;;2.35;0.70;;;;;;;18.94;79.08;100368.75;6246383;23;20064;-65